sensor_id;sensor_type;location;lat;lon;timestamp;P1;durP1;ratioP1;P2;durP2;ratioP2
6947;SDS011;3513;47.664;9.162;2022-11-25T00:01:13;11.97;;;5.97;;
6947;SDS011;3513;47.664;9.162;2022-11-25T00:03:41;19.03;;;6.33;;
6947;SDS011;3513;47.664;9.162;2022-11-25T00:08:37;11.03;;;5.97;;
6947;SDS011;3513;47.664;9.162;2022-11-25T00:11:03;16.17;;;6.27;;
6947;SDS011;3513;47.664;9.162;2022-11-25T00:13:30;11.17;;;6.50;;
6947;SDS011;3513;47.664;9.162;2022-11-25T00:15:59;10.40;;;7.13;;
6947;SDS011;3513;47.664;9.162;2022-11-25T00:18:29;11.33;;;6.33;;
6947;SDS011;3513;47.664;9.162;2022-11-25T00:20:55;8.87;;;5.83;;
6947;SDS011;3513;47.664;9.162;2022-11-25T00:23:21;13.87;;;7.23;;
6947;SDS011;3513;47.664;9.162;2022-11-25T00:25:47;9.50;;;6.70;;
6947;SDS011;3513;47.664;9.162;2022-11-25T00:28:12;12.73;;;8.90;;
6947;SDS011;3513;47.664;9.162;2022-11-25T00:30:38;15.93;;;8.30;;
6947;SDS011;3513;47.664;9.162;2022-11-25T00:33:04;37.90;;;14.10;;
6947;SDS011;3513;47.664;9.162;2022-11-25T00:35:29;30.57;;;14.40;;
6947;SDS011;3513;47.664;9.162;2022-11-25T00:37:55;26.57;;;12.67;;
6947;SDS011;3513;47.664;9.162;2022-11-25T00:40:20;34.63;;;13.13;;
6947;SDS011;3513;47.664;9.162;2022-11-25T00:42:46;24.40;;;10.80;;
6947;SDS011;3513;47.664;9.162;2022-11-25T00:45:30;20.50;;;10.37;;
6947;SDS011;3513;47.664;9.162;2022-11-25T00:47:56;23.07;;;10.83;;
6947;SDS011;3513;47.664;9.162;2022-11-25T00:50:21;28.20;;;11.33;;
6947;SDS011;3513;47.664;9.162;2022-11-25T00:52:47;26.33;;;10.43;;
6947;SDS011;3513;47.664;9.162;2022-11-25T00:55:12;33.40;;;12.93;;
6947;SDS011;3513;47.664;9.162;2022-11-25T00:57:38;30.33;;;11.80;;
6947;SDS011;3513;47.664;9.162;2022-11-25T01:00:04;23.60;;;11.30;;
6947;SDS011;3513;47.664;9.162;2022-11-25T01:02:30;25.60;;;12.00;;
6947;SDS011;3513;47.664;9.162;2022-11-25T01:04:56;31.30;;;12.97;;
6947;SDS011;3513;47.664;9.162;2022-11-25T01:07:21;28.63;;;12.67;;
6947;SDS011;3513;47.664;9.162;2022-11-25T01:09:47;34.20;;;14.00;;
6947;SDS011;3513;47.664;9.162;2022-11-25T01:12:13;39.37;;;11.37;;
6947;SDS011;3513;47.664;9.162;2022-11-25T01:14:39;22.77;;;10.90;;
6947;SDS011;3513;47.664;9.162;2022-11-25T01:17:04;33.63;;;10.70;;
6947;SDS011;3513;47.664;9.162;2022-11-25T01:19:31;21.43;;;10.20;;
6947;SDS011;3513;47.664;9.162;2022-11-25T01:21:56;35.67;;;12.40;;
6947;SDS011;3513;47.664;9.162;2022-11-25T01:24:22;21.03;;;11.83;;
6947;SDS011;3513;47.664;9.162;2022-11-25T01:26:50;47.33;;;14.97;;
6947;SDS011;3513;47.664;9.162;2022-11-25T01:29:18;52.10;;;16.40;;
6947;SDS011;3513;47.664;9.162;2022-11-25T01:31:44;26.13;;;12.83;;
6947;SDS011;3513;47.664;9.162;2022-11-25T01:34:14;27.87;;;12.90;;
6947;SDS011;3513;47.664;9.162;2022-11-25T01:36:42;26.23;;;12.70;;
6947;SDS011;3513;47.664;9.162;2022-11-25T01:39:11;37.87;;;14.30;;
6947;SDS011;3513;47.664;9.162;2022-11-25T01:41:48;33.27;;;15.90;;
6947;SDS011;3513;47.664;9.162;2022-11-25T01:44:18;34.87;;;15.50;;
6947;SDS011;3513;47.664;9.162;2022-11-25T01:49:16;33.23;;;16.50;;
6947;SDS011;3513;47.664;9.162;2022-11-25T01:51:52;27.97;;;13.30;;
6947;SDS011;3513;47.664;9.162;2022-11-25T01:54:39;29.03;;;13.70;;
6947;SDS011;3513;47.664;9.162;2022-11-25T01:57:13;29.33;;;12.83;;
6947;SDS011;3513;47.664;9.162;2022-11-25T01:59:45;34.87;;;13.50;;
6947;SDS011;3513;47.664;9.162;2022-11-25T02:02:14;26.77;;;13.30;;
6947;SDS011;3513;47.664;9.162;2022-11-25T02:04:41;31.50;;;13.83;;
6947;SDS011;3513;47.664;9.162;2022-11-25T02:07:13;28.57;;;12.60;;
6947;SDS011;3513;47.664;9.162;2022-11-25T02:09:40;36.53;;;13.23;;
6947;SDS011;3513;47.664;9.162;2022-11-25T02:12:07;27.40;;;12.83;;
6947;SDS011;3513;47.664;9.162;2022-11-25T02:14:34;32.50;;;14.40;;
6947;SDS011;3513;47.664;9.162;2022-11-25T02:17:00;27.23;;;12.60;;
6947;SDS011;3513;47.664;9.162;2022-11-25T02:22:34;27.87;;;13.33;;
6947;SDS011;3513;47.664;9.162;2022-11-25T02:27:40;39.87;;;13.10;;
6947;SDS011;3513;47.664;9.162;2022-11-25T02:30:08;44.70;;;12.60;;
6947;SDS011;3513;47.664;9.162;2022-11-25T02:32:34;26.63;;;13.27;;
6947;SDS011;3513;47.664;9.162;2022-11-25T02:34:59;34.57;;;12.60;;
6947;SDS011;3513;47.664;9.162;2022-11-25T02:37:25;27.27;;;11.90;;
6947;SDS011;3513;47.664;9.162;2022-11-25T02:39:52;24.40;;;12.10;;
6947;SDS011;3513;47.664;9.162;2022-11-25T02:42:18;24.73;;;12.30;;
6947;SDS011;3513;47.664;9.162;2022-11-25T02:44:47;33.43;;;13.60;;
6947;SDS011;3513;47.664;9.162;2022-11-25T02:47:13;32.97;;;12.47;;
6947;SDS011;3513;47.664;9.162;2022-11-25T02:49:39;29.90;;;14.07;;
6947;SDS011;3513;47.664;9.162;2022-11-25T02:52:05;26.90;;;12.73;;
6947;SDS011;3513;47.664;9.162;2022-11-25T02:54:32;27.60;;;13.20;;
6947;SDS011;3513;47.664;9.162;2022-11-25T02:56:57;25.80;;;13.60;;
6947;SDS011;3513;47.664;9.162;2022-11-25T02:59:23;26.93;;;13.53;;
6947;SDS011;3513;47.664;9.162;2022-11-25T03:01:49;28.33;;;11.77;;
6947;SDS011;3513;47.664;9.162;2022-11-25T03:04:14;25.53;;;12.73;;
6947;SDS011;3513;47.664;9.162;2022-11-25T03:06:40;35.50;;;13.07;;
6947;SDS011;3513;47.664;9.162;2022-11-25T03:09:06;30.57;;;14.60;;
6947;SDS011;3513;47.664;9.162;2022-11-25T03:11:32;25.00;;;13.13;;
6947;SDS011;3513;47.664;9.162;2022-11-25T03:14:16;28.70;;;13.77;;
6947;SDS011;3513;47.664;9.162;2022-11-25T03:16:42;37.07;;;13.50;;
6947;SDS011;3513;47.664;9.162;2022-11-25T03:19:07;28.50;;;14.03;;
6947;SDS011;3513;47.664;9.162;2022-11-25T03:21:33;28.37;;;12.43;;
6947;SDS011;3513;47.664;9.162;2022-11-25T03:23:59;21.80;;;12.60;;
6947;SDS011;3513;47.664;9.162;2022-11-25T03:26:24;22.83;;;12.20;;
6947;SDS011;3513;47.664;9.162;2022-11-25T03:28:50;34.77;;;14.37;;
6947;SDS011;3513;47.664;9.162;2022-11-25T03:31:16;22.73;;;12.13;;
6947;SDS011;3513;47.664;9.162;2022-11-25T03:33:41;18.70;;;10.70;;
6947;SDS011;3513;47.664;9.162;2022-11-25T03:36:07;29.20;;;11.73;;
6947;SDS011;3513;47.664;9.162;2022-11-25T03:38:33;26.43;;;11.37;;
6947;SDS011;3513;47.664;9.162;2022-11-25T03:40:58;29.90;;;12.10;;
6947;SDS011;3513;47.664;9.162;2022-11-25T03:43:24;42.53;;;11.40;;
6947;SDS011;3513;47.664;9.162;2022-11-25T03:45:50;22.20;;;10.30;;
6947;SDS011;3513;47.664;9.162;2022-11-25T03:48:15;16.70;;;9.60;;
6947;SDS011;3513;47.664;9.162;2022-11-25T03:50:41;22.73;;;9.47;;
6947;SDS011;3513;47.664;9.162;2022-11-25T03:53:07;17.50;;;7.93;;
6947;SDS011;3513;47.664;9.162;2022-11-25T03:55:32;17.17;;;8.90;;
6947;SDS011;3513;47.664;9.162;2022-11-25T03:57:58;17.60;;;10.13;;
6947;SDS011;3513;47.664;9.162;2022-11-25T04:00:24;19.60;;;8.50;;
6947;SDS011;3513;47.664;9.162;2022-11-25T04:02:50;14.57;;;7.97;;
6947;SDS011;3513;47.664;9.162;2022-11-25T04:05:15;21.13;;;8.17;;
6947;SDS011;3513;47.664;9.162;2022-11-25T04:07:41;15.30;;;8.30;;
6947;SDS011;3513;47.664;9.162;2022-11-25T04:10:07;20.23;;;9.50;;
6947;SDS011;3513;47.664;9.162;2022-11-25T04:12:33;13.87;;;8.17;;
6947;SDS011;3513;47.664;9.162;2022-11-25T04:15:19;12.27;;;8.07;;
6947;SDS011;3513;47.664;9.162;2022-11-25T04:17:45;16.80;;;9.20;;
6947;SDS011;3513;47.664;9.162;2022-11-25T04:20:12;21.40;;;9.47;;
6947;SDS011;3513;47.664;9.162;2022-11-25T04:22:38;21.27;;;10.90;;
6947;SDS011;3513;47.664;9.162;2022-11-25T04:25:04;19.80;;;10.70;;
6947;SDS011;3513;47.664;9.162;2022-11-25T04:27:30;19.50;;;10.03;;
6947;SDS011;3513;47.664;9.162;2022-11-25T04:29:56;18.60;;;9.17;;
6947;SDS011;3513;47.664;9.162;2022-11-25T04:32:22;16.10;;;8.37;;
6947;SDS011;3513;47.664;9.162;2022-11-25T04:34:47;14.40;;;8.20;;
6947;SDS011;3513;47.664;9.162;2022-11-25T04:37:13;17.53;;;8.47;;
6947;SDS011;3513;47.664;9.162;2022-11-25T04:39:39;21.97;;;8.30;;
6947;SDS011;3513;47.664;9.162;2022-11-25T04:42:05;15.10;;;9.20;;
6947;SDS011;3513;47.664;9.162;2022-11-25T04:44:50;19.10;;;8.90;;
6947;SDS011;3513;47.664;9.162;2022-11-25T04:47:15;13.13;;;8.80;;
6947;SDS011;3513;47.664;9.162;2022-11-25T04:49:41;15.90;;;9.47;;
6947;SDS011;3513;47.664;9.162;2022-11-25T04:52:06;21.40;;;8.93;;
6947;SDS011;3513;47.664;9.162;2022-11-25T04:54:32;23.43;;;11.40;;
6947;SDS011;3513;47.664;9.162;2022-11-25T04:56:58;24.23;;;10.23;;
6947;SDS011;3513;47.664;9.162;2022-11-25T04:59:23;17.27;;;9.77;;
6947;SDS011;3513;47.664;9.162;2022-11-25T05:02:05;20.33;;;9.50;;
6947;SDS011;3513;47.664;9.162;2022-11-25T05:04:36;17.90;;;10.00;;
6947;SDS011;3513;47.664;9.162;2022-11-25T05:07:01;18.00;;;9.33;;
6947;SDS011;3513;47.664;9.162;2022-11-25T05:09:27;43.80;;;10.03;;
6947;SDS011;3513;47.664;9.162;2022-11-25T05:11:53;18.70;;;7.57;;
6947;SDS011;3513;47.664;9.162;2022-11-25T05:14:18;11.30;;;8.67;;
6947;SDS011;3513;47.664;9.162;2022-11-25T05:16:44;17.80;;;8.37;;
6947;SDS011;3513;47.664;9.162;2022-11-25T05:19:10;11.13;;;7.00;;
6947;SDS011;3513;47.664;9.162;2022-11-25T05:21:35;13.23;;;7.37;;
6947;SDS011;3513;47.664;9.162;2022-11-25T05:24:01;21.70;;;8.10;;
6947;SDS011;3513;47.664;9.162;2022-11-25T05:26:27;17.73;;;6.37;;
6947;SDS011;3513;47.664;9.162;2022-11-25T05:28:52;14.87;;;7.63;;
6947;SDS011;3513;47.664;9.162;2022-11-25T05:31:18;10.47;;;6.60;;
6947;SDS011;3513;47.664;9.162;2022-11-25T05:33:44;12.90;;;6.50;;
6947;SDS011;3513;47.664;9.162;2022-11-25T05:36:09;12.10;;;6.33;;
6947;SDS011;3513;47.664;9.162;2022-11-25T05:38:35;13.80;;;6.20;;
6947;SDS011;3513;47.664;9.162;2022-11-25T05:41:02;20.60;;;6.60;;
6947;SDS011;3513;47.664;9.162;2022-11-25T05:43:29;17.50;;;6.77;;
6947;SDS011;3513;47.664;9.162;2022-11-25T05:45:55;61.40;;;7.23;;
6947;SDS011;3513;47.664;9.162;2022-11-25T05:48:21;14.23;;;6.63;;
6947;SDS011;3513;47.664;9.162;2022-11-25T05:50:47;17.27;;;7.43;;
6947;SDS011;3513;47.664;9.162;2022-11-25T05:53:12;15.37;;;7.60;;
6947;SDS011;3513;47.664;9.162;2022-11-25T05:55:41;15.37;;;8.20;;
6947;SDS011;3513;47.664;9.162;2022-11-25T05:58:07;27.53;;;12.77;;
6947;SDS011;3513;47.664;9.162;2022-11-25T06:00:33;30.80;;;15.13;;
6947;SDS011;3513;47.664;9.162;2022-11-25T06:02:59;46.40;;;19.57;;
6947;SDS011;3513;47.664;9.162;2022-11-25T06:05:25;25.50;;;13.33;;
6947;SDS011;3513;47.664;9.162;2022-11-25T06:07:51;27.33;;;11.97;;
6947;SDS011;3513;47.664;9.162;2022-11-25T06:10:17;20.20;;;10.10;;
6947;SDS011;3513;47.664;9.162;2022-11-25T06:12:43;19.77;;;10.57;;
6947;SDS011;3513;47.664;9.162;2022-11-25T06:15:09;18.10;;;10.53;;
6947;SDS011;3513;47.664;9.162;2022-11-25T06:17:35;23.83;;;11.97;;
6947;SDS011;3513;47.664;9.162;2022-11-25T06:20:02;21.67;;;10.97;;
6947;SDS011;3513;47.664;9.162;2022-11-25T06:22:28;22.20;;;11.53;;
6947;SDS011;3513;47.664;9.162;2022-11-25T06:24:54;18.57;;;10.60;;
6947;SDS011;3513;47.664;9.162;2022-11-25T06:27:29;18.63;;;9.17;;
6947;SDS011;3513;47.664;9.162;2022-11-25T06:30:01;22.27;;;10.63;;
6947;SDS011;3513;47.664;9.162;2022-11-25T06:32:28;20.83;;;10.03;;
6947;SDS011;3513;47.664;9.162;2022-11-25T06:34:53;36.63;;;13.57;;
6947;SDS011;3513;47.664;9.162;2022-11-25T06:37:19;25.53;;;12.40;;
6947;SDS011;3513;47.664;9.162;2022-11-25T06:39:45;28.40;;;12.00;;
6947;SDS011;3513;47.664;9.162;2022-11-25T06:42:11;35.53;;;14.73;;
6947;SDS011;3513;47.664;9.162;2022-11-25T06:44:37;48.07;;;18.60;;
6947;SDS011;3513;47.664;9.162;2022-11-25T06:47:03;73.83;;;23.50;;
6947;SDS011;3513;47.664;9.162;2022-11-25T06:49:28;30.47;;;13.77;;
6947;SDS011;3513;47.664;9.162;2022-11-25T06:51:54;23.20;;;10.17;;
6947;SDS011;3513;47.664;9.162;2022-11-25T06:54:20;33.77;;;12.20;;
6947;SDS011;3513;47.664;9.162;2022-11-25T06:56:46;23.73;;;11.80;;
6947;SDS011;3513;47.664;9.162;2022-11-25T06:59:15;72.50;;;33.87;;
6947;SDS011;3513;47.664;9.162;2022-11-25T07:01:42;48.20;;;25.17;;
6947;SDS011;3513;47.664;9.162;2022-11-25T07:04:08;37.37;;;16.73;;
6947;SDS011;3513;47.664;9.162;2022-11-25T07:06:34;30.50;;;13.20;;
6947;SDS011;3513;47.664;9.162;2022-11-25T07:09:00;28.33;;;11.33;;
6947;SDS011;3513;47.664;9.162;2022-11-25T07:11:33;17.83;;;11.17;;
6947;SDS011;3513;47.664;9.162;2022-11-25T07:14:01;20.43;;;9.23;;
6947;SDS011;3513;47.664;9.162;2022-11-25T07:16:30;24.67;;;9.53;;
6947;SDS011;3513;47.664;9.162;2022-11-25T07:19:00;20.27;;;10.27;;
6947;SDS011;3513;47.664;9.162;2022-11-25T07:21:27;17.83;;;7.43;;
6947;SDS011;3513;47.664;9.162;2022-11-25T07:23:54;13.20;;;6.87;;
6947;SDS011;3513;47.664;9.162;2022-11-25T07:26:23;27.07;;;9.60;;
6947;SDS011;3513;47.664;9.162;2022-11-25T07:28:51;15.10;;;8.50;;
6947;SDS011;3513;47.664;9.162;2022-11-25T07:31:26;16.03;;;8.00;;
6947;SDS011;3513;47.664;9.162;2022-11-25T07:33:55;15.40;;;9.03;;
6947;SDS011;3513;47.664;9.162;2022-11-25T07:36:23;17.93;;;9.27;;
6947;SDS011;3513;47.664;9.162;2022-11-25T07:38:49;19.03;;;8.60;;
6947;SDS011;3513;47.664;9.162;2022-11-25T07:41:16;20.63;;;9.53;;
6947;SDS011;3513;47.664;9.162;2022-11-25T07:43:44;33.27;;;10.83;;
6947;SDS011;3513;47.664;9.162;2022-11-25T07:46:13;17.30;;;9.80;;
6947;SDS011;3513;47.664;9.162;2022-11-25T07:48:40;20.97;;;10.03;;
6947;SDS011;3513;47.664;9.162;2022-11-25T07:52:07;30.70;;;10.73;;
6947;SDS011;3513;47.664;9.162;2022-11-25T07:54:05;24.13;;;10.13;;
6947;SDS011;3513;47.664;9.162;2022-11-25T07:56:33;17.03;;;11.57;;
6947;SDS011;3513;47.664;9.162;2022-11-25T07:58:59;22.17;;;11.40;;
6947;SDS011;3513;47.664;9.162;2022-11-25T08:01:25;21.17;;;9.70;;
6947;SDS011;3513;47.664;9.162;2022-11-25T08:03:53;18.33;;;10.80;;
6947;SDS011;3513;47.664;9.162;2022-11-25T08:06:23;22.60;;;13.57;;
6947;SDS011;3513;47.664;9.162;2022-11-25T08:08:51;25.93;;;12.20;;
6947;SDS011;3513;47.664;9.162;2022-11-25T08:11:20;22.53;;;11.57;;
6947;SDS011;3513;47.664;9.162;2022-11-25T08:13:47;19.67;;;11.90;;
6947;SDS011;3513;47.664;9.162;2022-11-25T08:16:15;25.37;;;14.10;;
6947;SDS011;3513;47.664;9.162;2022-11-25T08:18:41;26.30;;;13.47;;
6947;SDS011;3513;47.664;9.162;2022-11-25T08:21:08;30.47;;;13.70;;
6947;SDS011;3513;47.664;9.162;2022-11-25T08:23:35;27.73;;;13.83;;
6947;SDS011;3513;47.664;9.162;2022-11-25T08:26:03;29.13;;;14.40;;
6947;SDS011;3513;47.664;9.162;2022-11-25T08:28:29;34.37;;;12.60;;
6947;SDS011;3513;47.664;9.162;2022-11-25T08:31:05;22.03;;;13.67;;
6947;SDS011;3513;47.664;9.162;2022-11-25T08:33:33;25.70;;;13.80;;
6947;SDS011;3513;47.664;9.162;2022-11-25T08:35:59;23.07;;;14.87;;
6947;SDS011;3513;47.664;9.162;2022-11-25T08:38:25;34.00;;;14.23;;
6947;SDS011;3513;47.664;9.162;2022-11-25T08:40:52;30.47;;;12.97;;
6947;SDS011;3513;47.664;9.162;2022-11-25T08:43:18;38.70;;;17.17;;
6947;SDS011;3513;47.664;9.162;2022-11-25T08:45:46;36.30;;;16.87;;
6947;SDS011;3513;47.664;9.162;2022-11-25T08:48:12;33.93;;;16.93;;
6947;SDS011;3513;47.664;9.162;2022-11-25T08:50:39;34.80;;;16.57;;
6947;SDS011;3513;47.664;9.162;2022-11-25T08:53:09;31.47;;;16.57;;
6947;SDS011;3513;47.664;9.162;2022-11-25T08:55:34;33.43;;;17.13;;
6947;SDS011;3513;47.664;9.162;2022-11-25T08:58:02;35.43;;;18.40;;
6947;SDS011;3513;47.664;9.162;2022-11-25T09:00:28;31.20;;;17.20;;
6947;SDS011;3513;47.664;9.162;2022-11-25T09:02:54;34.97;;;20.10;;
6947;SDS011;3513;47.664;9.162;2022-11-25T09:05:20;56.97;;;17.90;;
6947;SDS011;3513;47.664;9.162;2022-11-25T09:07:45;38.97;;;16.60;;
6947;SDS011;3513;47.664;9.162;2022-11-25T09:10:13;34.60;;;17.67;;
6947;SDS011;3513;47.664;9.162;2022-11-25T09:12:40;32.47;;;16.60;;
6947;SDS011;3513;47.664;9.162;2022-11-25T09:15:05;26.93;;;16.10;;
6947;SDS011;3513;47.664;9.162;2022-11-25T09:17:32;33.47;;;17.90;;
6947;SDS011;3513;47.664;9.162;2022-11-25T09:20:01;37.43;;;20.27;;
6947;SDS011;3513;47.664;9.162;2022-11-25T09:22:29;42.70;;;22.67;;
6947;SDS011;3513;47.664;9.162;2022-11-25T09:24:55;33.47;;;19.30;;
6947;SDS011;3513;47.664;9.162;2022-11-25T09:27:21;40.63;;;21.37;;
6947;SDS011;3513;47.664;9.162;2022-11-25T09:29:46;47.27;;;23.13;;
6947;SDS011;3513;47.664;9.162;2022-11-25T09:32:12;67.73;;;30.73;;
6947;SDS011;3513;47.664;9.162;2022-11-25T09:34:38;39.40;;;20.87;;
6947;SDS011;3513;47.664;9.162;2022-11-25T09:37:03;39.67;;;20.00;;
6947;SDS011;3513;47.664;9.162;2022-11-25T09:39:29;37.43;;;19.90;;
6947;SDS011;3513;47.664;9.162;2022-11-25T09:53:57;37.63;;;16.27;;
6947;SDS011;3513;47.664;9.162;2022-11-25T09:56:41;24.33;;;14.90;;
6947;SDS011;3513;47.664;9.162;2022-11-25T09:59:18;29.10;;;17.37;;
6947;SDS011;3513;47.664;9.162;2022-11-25T10:01:58;27.87;;;14.80;;
6947;SDS011;3513;47.664;9.162;2022-11-25T10:04:37;32.47;;;17.07;;
6947;SDS011;3513;47.664;9.162;2022-11-25T10:07:19;39.70;;;16.27;;
6947;SDS011;3513;47.664;9.162;2022-11-25T10:09:57;31.90;;;18.17;;
6947;SDS011;3513;47.664;9.162;2022-11-25T10:12:27;33.63;;;16.93;;
6947;SDS011;3513;47.664;9.162;2022-11-25T10:15:00;39.20;;;17.90;;
6947;SDS011;3513;47.664;9.162;2022-11-25T10:22:54;29.80;;;16.40;;
6947;SDS011;3513;47.664;9.162;2022-11-25T10:25:29;39.30;;;17.27;;
6947;SDS011;3513;47.664;9.162;2022-11-25T10:30:30;34.90;;;17.87;;
6947;SDS011;3513;47.664;9.162;2022-11-25T10:35:42;29.90;;;16.63;;
6947;SDS011;3513;47.664;9.162;2022-11-25T10:38:14;27.40;;;16.20;;
6947;SDS011;3513;47.664;9.162;2022-11-25T10:40:50;31.73;;;16.37;;
6947;SDS011;3513;47.664;9.162;2022-11-25T10:43:18;29.03;;;16.60;;
6947;SDS011;3513;47.664;9.162;2022-11-25T10:48:45;27.80;;;16.33;;
6947;SDS011;3513;47.664;9.162;2022-11-25T10:54:14;30.90;;;18.27;;
6947;SDS011;3513;47.664;9.162;2022-11-25T10:59:22;34.13;;;17.97;;
6947;SDS011;3513;47.664;9.162;2022-11-25T11:02:04;32.50;;;18.87;;
6947;SDS011;3513;47.664;9.162;2022-11-25T11:04:52;34.23;;;16.73;;
6947;SDS011;3513;47.664;9.162;2022-11-25T11:07:39;26.57;;;14.57;;
6947;SDS011;3513;47.664;9.162;2022-11-25T11:12:58;26.33;;;14.90;;
6947;SDS011;3513;47.664;9.162;2022-11-25T11:15:28;39.37;;;16.73;;
6947;SDS011;3513;47.664;9.162;2022-11-25T11:17:55;27.60;;;14.90;;
6947;SDS011;3513;47.664;9.162;2022-11-25T11:20:23;20.80;;;12.70;;
6947;SDS011;3513;47.664;9.162;2022-11-25T11:22:59;26.53;;;14.33;;
6947;SDS011;3513;47.664;9.162;2022-11-25T11:25:28;36.70;;;15.97;;
6947;SDS011;3513;47.664;9.162;2022-11-25T11:27:58;29.83;;;17.23;;
6947;SDS011;3513;47.664;9.162;2022-11-25T11:30:26;28.70;;;15.37;;
6947;SDS011;3513;47.664;9.162;2022-11-25T11:32:59;27.10;;;15.30;;
6947;SDS011;3513;47.664;9.162;2022-11-25T11:41:16;27.60;;;15.13;;
6947;SDS011;3513;47.664;9.162;2022-11-25T11:46:29;29.20;;;14.43;;
6947;SDS011;3513;47.664;9.162;2022-11-25T11:54:44;26.13;;;14.33;;
6947;SDS011;3513;47.664;9.162;2022-11-25T11:57:37;33.53;;;14.07;;
6947;SDS011;3513;47.664;9.162;2022-11-25T12:03:26;18.40;;;11.23;;
6947;SDS011;3513;47.664;9.162;2022-11-25T12:05:58;32.27;;;16.53;;
6947;SDS011;3513;47.664;9.162;2022-11-25T12:11:04;17.97;;;10.07;;
6947;SDS011;3513;47.664;9.162;2022-11-25T12:16:11;16.70;;;8.03;;
6947;SDS011;3513;47.664;9.162;2022-11-25T12:18:49;15.83;;;8.63;;
6947;SDS011;3513;47.664;9.162;2022-11-25T12:30:11;15.13;;;8.77;;
6947;SDS011;3513;47.664;9.162;2022-11-25T12:43:37;11.50;;;6.17;;
6947;SDS011;3513;47.664;9.162;2022-11-25T12:48:57;14.70;;;8.00;;
6947;SDS011;3513;47.664;9.162;2022-11-25T13:05:50;13.00;;;7.63;;
6947;SDS011;3513;47.664;9.162;2022-11-25T13:16:51;16.70;;;5.07;;
6947;SDS011;3513;47.664;9.162;2022-11-25T13:19:18;12.20;;;4.00;;
6947;SDS011;3513;47.664;9.162;2022-11-25T13:22:00;16.33;;;5.30;;
6947;SDS011;3513;47.664;9.162;2022-11-25T13:24:47;13.93;;;5.87;;
6947;SDS011;3513;47.664;9.162;2022-11-25T13:29:57;6.43;;;3.23;;
6947;SDS011;3513;47.664;9.162;2022-11-25T13:37:45;13.63;;;4.60;;
6947;SDS011;3513;47.664;9.162;2022-11-25T13:40:33;9.70;;;3.47;;
6947;SDS011;3513;47.664;9.162;2022-11-25T13:43:00;5.37;;;3.20;;
6947;SDS011;3513;47.664;9.162;2022-11-25T13:45:38;15.73;;;4.53;;
6947;SDS011;3513;47.664;9.162;2022-11-25T13:50:46;9.67;;;3.33;;
6947;SDS011;3513;47.664;9.162;2022-11-25T13:55:52;10.13;;;4.23;;
6947;SDS011;3513;47.664;9.162;2022-11-25T14:02:42;10.53;;;3.47;;
6947;SDS011;3513;47.664;9.162;2022-11-25T14:26:57;13.30;;;4.83;;
6947;SDS011;3513;47.664;9.162;2022-11-25T14:32:09;15.80;;;7.83;;
6947;SDS011;3513;47.664;9.162;2022-11-25T14:34:41;24.23;;;6.60;;
6947;SDS011;3513;47.664;9.162;2022-11-25T14:40:07;14.17;;;4.70;;
6947;SDS011;3513;47.664;9.162;2022-11-25T14:42:35;10.83;;;4.00;;
6947;SDS011;3513;47.664;9.162;2022-11-25T14:45:27;5.43;;;3.70;;
6947;SDS011;3513;47.664;9.162;2022-11-25T14:47:53;14.10;;;5.23;;
6947;SDS011;3513;47.664;9.162;2022-11-25T14:50:20;17.10;;;4.97;;
6947;SDS011;3513;47.664;9.162;2022-11-25T14:52:46;5.93;;;3.80;;
6947;SDS011;3513;47.664;9.162;2022-11-25T14:55:27;11.10;;;4.17;;
6947;SDS011;3513;47.664;9.162;2022-11-25T14:57:54;12.17;;;4.30;;
6947;SDS011;3513;47.664;9.162;2022-11-25T15:00:20;8.60;;;4.13;;
6947;SDS011;3513;47.664;9.162;2022-11-25T15:02:54;9.33;;;4.30;;
6947;SDS011;3513;47.664;9.162;2022-11-25T15:05:25;14.90;;;5.07;;
6947;SDS011;3513;47.664;9.162;2022-11-25T15:15:44;12.30;;;3.60;;
6947;SDS011;3513;47.664;9.162;2022-11-25T15:18:11;9.53;;;5.77;;
6947;SDS011;3513;47.664;9.162;2022-11-25T15:20:44;5.97;;;3.77;;
6947;SDS011;3513;47.664;9.162;2022-11-25T15:23:12;17.43;;;6.80;;
6947;SDS011;3513;47.664;9.162;2022-11-25T15:25:48;9.10;;;4.60;;
6947;SDS011;3513;47.664;9.162;2022-11-25T15:28:14;16.00;;;6.57;;
6947;SDS011;3513;47.664;9.162;2022-11-25T15:30:40;8.73;;;3.53;;
6947;SDS011;3513;47.664;9.162;2022-11-25T15:33:07;6.60;;;4.13;;
6947;SDS011;3513;47.664;9.162;2022-11-25T15:35:34;7.40;;;4.43;;
6947;SDS011;3513;47.664;9.162;2022-11-25T15:38:15;9.90;;;5.20;;
6947;SDS011;3513;47.664;9.162;2022-11-25T15:40:59;10.37;;;5.00;;
6947;SDS011;3513;47.664;9.162;2022-11-25T15:43:27;6.30;;;4.23;;
6947;SDS011;3513;47.664;9.162;2022-11-25T15:45:55;7.73;;;5.47;;
6947;SDS011;3513;47.664;9.162;2022-11-25T15:48:31;8.77;;;4.67;;
6947;SDS011;3513;47.664;9.162;2022-11-25T15:51:43;14.60;;;4.70;;
6947;SDS011;3513;47.664;9.162;2022-11-25T15:53:55;5.63;;;4.37;;
6947;SDS011;3513;47.664;9.162;2022-11-25T15:56:25;17.70;;;4.70;;
6947;SDS011;3513;47.664;9.162;2022-11-25T15:58:51;8.03;;;3.80;;
6947;SDS011;3513;47.664;9.162;2022-11-25T16:03:46;12.67;;;4.50;;
6947;SDS011;3513;47.664;9.162;2022-11-25T16:06:31;9.30;;;4.87;;
6947;SDS011;3513;47.664;9.162;2022-11-25T16:08:58;9.33;;;4.33;;
6947;SDS011;3513;47.664;9.162;2022-11-25T16:11:26;11.57;;;4.50;;
6947;SDS011;3513;47.664;9.162;2022-11-25T16:16:59;8.13;;;4.77;;
6947;SDS011;3513;47.664;9.162;2022-11-25T16:19:48;13.30;;;7.63;;
6947;SDS011;3513;47.664;9.162;2022-11-25T16:22:17;30.40;;;12.33;;
6947;SDS011;3513;47.664;9.162;2022-11-25T16:24:50;18.03;;;7.23;;
6947;SDS011;3513;47.664;9.162;2022-11-25T16:27:19;12.53;;;6.00;;
6947;SDS011;3513;47.664;9.162;2022-11-25T16:29:55;31.77;;;12.37;;
6947;SDS011;3513;47.664;9.162;2022-11-25T16:32:32;12.80;;;5.30;;
6947;SDS011;3513;47.664;9.162;2022-11-25T16:37:56;24.77;;;8.07;;
6947;SDS011;3513;47.664;9.162;2022-11-25T16:40:22;31.07;;;15.60;;
6947;SDS011;3513;47.664;9.162;2022-11-25T16:42:51;20.97;;;11.30;;
6947;SDS011;3513;47.664;9.162;2022-11-25T16:45:24;29.83;;;11.60;;
6947;SDS011;3513;47.664;9.162;2022-11-25T16:47:51;25.70;;;12.77;;
6947;SDS011;3513;47.664;9.162;2022-11-25T16:50:17;117.00;;;60.43;;
6947;SDS011;3513;47.664;9.162;2022-11-25T16:52:43;96.63;;;47.37;;
6947;SDS011;3513;47.664;9.162;2022-11-25T16:55:09;114.00;;;61.90;;
6947;SDS011;3513;47.664;9.162;2022-11-25T16:57:35;29.33;;;15.83;;
6947;SDS011;3513;47.664;9.162;2022-11-25T17:00:03;20.47;;;12.40;;
6947;SDS011;3513;47.664;9.162;2022-11-25T17:02:33;17.33;;;7.23;;
6947;SDS011;3513;47.664;9.162;2022-11-25T17:05:13;13.70;;;6.97;;
6947;SDS011;3513;47.664;9.162;2022-11-25T17:07:44;12.53;;;6.80;;
6947;SDS011;3513;47.664;9.162;2022-11-25T17:10:09;12.30;;;6.20;;
6947;SDS011;3513;47.664;9.162;2022-11-25T17:12:35;13.30;;;6.37;;
6947;SDS011;3513;47.664;9.162;2022-11-25T17:15:04;10.93;;;6.50;;
6947;SDS011;3513;47.664;9.162;2022-11-25T17:17:31;8.70;;;5.03;;
6947;SDS011;3513;47.664;9.162;2022-11-25T17:19:58;11.70;;;5.60;;
6947;SDS011;3513;47.664;9.162;2022-11-25T17:22:24;17.63;;;7.30;;
6947;SDS011;3513;47.664;9.162;2022-11-25T17:24:51;11.47;;;6.03;;
6947;SDS011;3513;47.664;9.162;2022-11-25T17:27:21;16.57;;;6.97;;
6947;SDS011;3513;47.664;9.162;2022-11-25T17:29:50;16.70;;;7.17;;
6947;SDS011;3513;47.664;9.162;2022-11-25T17:32:16;11.83;;;5.87;;
6947;SDS011;3513;47.664;9.162;2022-11-25T17:34:42;15.33;;;6.20;;
6947;SDS011;3513;47.664;9.162;2022-11-25T17:37:25;14.03;;;5.77;;
6947;SDS011;3513;47.664;9.162;2022-11-25T17:39:52;13.67;;;5.17;;
6947;SDS011;3513;47.664;9.162;2022-11-25T17:42:20;20.03;;;6.10;;
6947;SDS011;3513;47.664;9.162;2022-11-25T17:44:52;7.43;;;4.90;;
6947;SDS011;3513;47.664;9.162;2022-11-25T17:47:18;11.73;;;5.20;;
6947;SDS011;3513;47.664;9.162;2022-11-25T17:49:44;14.63;;;6.07;;
6947;SDS011;3513;47.664;9.162;2022-11-25T17:52:10;10.67;;;5.23;;
6947;SDS011;3513;47.664;9.162;2022-11-25T17:54:36;12.73;;;7.03;;
6947;SDS011;3513;47.664;9.162;2022-11-25T17:57:02;15.63;;;7.23;;
6947;SDS011;3513;47.664;9.162;2022-11-25T17:59:32;23.00;;;6.53;;